Bitely, Michigan
Current Conditions -  °F | °C
As of 9:34 PM on Saturday 20 Dec 2014 (Local Time) from KRQB Reporting Station
Overcast Overcast  
Wind Chill: 29°   Ceiling: 2000
Heat Index: 29°   Visibility: 10mi
Dew Point: 26°   Wind: 0mph
Humidity: 88%   Direction: NA
Pressure: 30.24"   Gusts: NA
Location:  43.75°N, 85.86°W
Report Text: KRQB 210234Z AUTO 00000KT 10SM OVC020 M01/M03 A3024 RMK AO2 T10141031
Loading
Personal Weather Stations






























Interactive Weather Map New forecast layout! Learn more

10-Day Weather Forecast

Advertisements
Track Severe Weather on mobile